sensor_id;sensor_type;location;lat;lon;timestamp;P1;durP1;ratioP1;P2;durP2;ratioP2
60851;SDS011;48553;50.766;2.900;2024-01-11T00:01:22;23.08;;;10.40;;
60851;SDS011;48553;50.766;2.900;2024-01-11T00:04:23;24.02;;;10.35;;
60851;SDS011;48553;50.766;2.900;2024-01-11T00:07:23;26.90;;;10.40;;
60851;SDS011;48553;50.766;2.900;2024-01-11T00:10:24;25.67;;;10.27;;
60851;SDS011;48553;50.766;2.900;2024-01-11T00:13:24;24.90;;;10.18;;
60851;SDS011;48553;50.766;2.900;2024-01-11T00:16:25;22.45;;;9.73;;
60851;SDS011;48553;50.766;2.900;2024-01-11T00:19:26;23.20;;;10.05;;
60851;SDS011;48553;50.766;2.900;2024-01-11T00:22:26;24.70;;;10.05;;
60851;SDS011;48553;50.766;2.900;2024-01-11T00:25:27;27.75;;;10.50;;
60851;SDS011;48553;50.766;2.900;2024-01-11T00:28:27;25.13;;;10.13;;
60851;SDS011;48553;50.766;2.900;2024-01-11T00:31:28;22.38;;;10.38;;
60851;SDS011;48553;50.766;2.900;2024-01-11T00:34:29;24.40;;;10.77;;
60851;SDS011;48553;50.766;2.900;2024-01-11T00:37:29;25.98;;;10.75;;
60851;SDS011;48553;50.766;2.900;2024-01-11T00:40:29;25.42;;;10.23;;
60851;SDS011;48553;50.766;2.900;2024-01-11T00:43:30;24.42;;;9.50;;
60851;SDS011;48553;50.766;2.900;2024-01-11T00:46:30;22.38;;;9.75;;
60851;SDS011;48553;50.766;2.900;2024-01-11T00:49:31;24.17;;;10.70;;
60851;SDS011;48553;50.766;2.900;2024-01-11T00:52:32;27.65;;;10.63;;
60851;SDS011;48553;50.766;2.900;2024-01-11T00:55:32;24.52;;;10.07;;
60851;SDS011;48553;50.766;2.900;2024-01-11T00:58:32;27.60;;;10.65;;
60851;SDS011;48553;50.766;2.900;2024-01-11T01:01:33;24.42;;;10.02;;
60851;SDS011;48553;50.766;2.900;2024-01-11T01:04:36;26.35;;;10.65;;
60851;SDS011;48553;50.766;2.900;2024-01-11T01:07:38;26.43;;;10.53;;
60851;SDS011;48553;50.766;2.900;2024-01-11T01:10:38;27.67;;;10.45;;
60851;SDS011;48553;50.766;2.900;2024-01-11T01:13:38;26.75;;;10.13;;
60851;SDS011;48553;50.766;2.900;2024-01-11T01:16:39;29.67;;;10.52;;
60851;SDS011;48553;50.766;2.900;2024-01-11T01:19:39;26.90;;;10.18;;
60851;SDS011;48553;50.766;2.900;2024-01-11T01:22:40;26.95;;;9.95;;
60851;SDS011;48553;50.766;2.900;2024-01-11T01:25:40;24.17;;;10.75;;
60851;SDS011;48553;50.766;2.900;2024-01-11T01:28:41;25.90;;;10.23;;
60851;SDS011;48553;50.766;2.900;2024-01-11T01:31:41;27.20;;;10.73;;
60851;SDS011;48553;50.766;2.900;2024-01-11T01:34:42;25.55;;;10.18;;
60851;SDS011;48553;50.766;2.900;2024-01-11T01:37:42;22.98;;;10.00;;
60851;SDS011;48553;50.766;2.900;2024-01-11T01:40:43;25.95;;;9.63;;
60851;SDS011;48553;50.766;2.900;2024-01-11T01:43:43;24.55;;;9.85;;
60851;SDS011;48553;50.766;2.900;2024-01-11T01:46:44;27.77;;;10.10;;
60851;SDS011;48553;50.766;2.900;2024-01-11T01:49:45;23.08;;;9.38;;
60851;SDS011;48553;50.766;2.900;2024-01-11T01:52:48;24.67;;;10.48;;
60851;SDS011;48553;50.766;2.900;2024-01-11T01:55:51;24.25;;;9.43;;
60851;SDS011;48553;50.766;2.900;2024-01-11T01:58:53;26.30;;;9.75;;
60851;SDS011;48553;50.766;2.900;2024-01-11T02:01:54;22.73;;;9.88;;
60851;SDS011;48553;50.766;2.900;2024-01-11T02:04:55;26.08;;;9.93;;
60851;SDS011;48553;50.766;2.900;2024-01-11T02:07:56;26.75;;;10.23;;
60851;SDS011;48553;50.766;2.900;2024-01-11T02:10:59;25.08;;;9.35;;
60851;SDS011;48553;50.766;2.900;2024-01-11T02:14:00;27.13;;;10.00;;
60851;SDS011;48553;50.766;2.900;2024-01-11T02:17:01;26.45;;;10.57;;
60851;SDS011;48553;50.766;2.900;2024-01-11T02:20:02;25.52;;;10.63;;
60851;SDS011;48553;50.766;2.900;2024-01-11T02:23:05;26.33;;;9.98;;
60851;SDS011;48553;50.766;2.900;2024-01-11T02:26:11;25.75;;;9.93;;
60851;SDS011;48553;50.766;2.900;2024-01-11T02:29:13;26.10;;;10.45;;
60851;SDS011;48553;50.766;2.900;2024-01-11T02:32:14;27.25;;;10.13;;
60851;SDS011;48553;50.766;2.900;2024-01-11T02:35:15;24.55;;;9.52;;
60851;SDS011;48553;50.766;2.900;2024-01-11T02:38:16;24.17;;;10.40;;
60851;SDS011;48553;50.766;2.900;2024-01-11T02:41:16;28.35;;;10.60;;
60851;SDS011;48553;50.766;2.900;2024-01-11T02:44:18;24.40;;;9.98;;
60851;SDS011;48553;50.766;2.900;2024-01-11T02:47:19;27.17;;;10.43;;
60851;SDS011;48553;50.766;2.900;2024-01-11T02:50:19;22.85;;;10.05;;
60851;SDS011;48553;50.766;2.900;2024-01-11T02:53:19;22.33;;;9.75;;
60851;SDS011;48553;50.766;2.900;2024-01-11T02:56:20;25.67;;;9.57;;
60851;SDS011;48553;50.766;2.900;2024-01-11T02:59:20;23.23;;;9.93;;
60851;SDS011;48553;50.766;2.900;2024-01-11T03:02:21;24.70;;;10.23;;
60851;SDS011;48553;50.766;2.900;2024-01-11T03:05:21;28.65;;;10.82;;
60851;SDS011;48553;50.766;2.900;2024-01-11T03:08:22;27.48;;;10.40;;
60851;SDS011;48553;50.766;2.900;2024-01-11T03:11:22;22.98;;;9.85;;
60851;SDS011;48553;50.766;2.900;2024-01-11T03:14:23;23.23;;;10.52;;
60851;SDS011;48553;50.766;2.900;2024-01-11T03:17:23;26.58;;;10.48;;
60851;SDS011;48553;50.766;2.900;2024-01-11T03:20:23;25.83;;;10.45;;
60851;SDS011;48553;50.766;2.900;2024-01-11T03:23:24;26.65;;;10.55;;
60851;SDS011;48553;50.766;2.900;2024-01-11T03:26:25;24.80;;;9.70;;
60851;SDS011;48553;50.766;2.900;2024-01-11T03:29:25;23.70;;;10.50;;
60851;SDS011;48553;50.766;2.900;2024-01-11T03:32:26;19.70;;;9.73;;
60851;SDS011;48553;50.766;2.900;2024-01-11T03:35:26;25.90;;;10.15;;
60851;SDS011;48553;50.766;2.900;2024-01-11T03:38:27;26.52;;;10.40;;
60851;SDS011;48553;50.766;2.900;2024-01-11T03:41:27;25.70;;;10.20;;
60851;SDS011;48553;50.766;2.900;2024-01-11T03:44:27;23.25;;;9.95;;
60851;SDS011;48553;50.766;2.900;2024-01-11T03:47:28;25.63;;;10.73;;
60851;SDS011;48553;50.766;2.900;2024-01-11T03:50:28;24.55;;;10.93;;
60851;SDS011;48553;50.766;2.900;2024-01-11T03:53:29;27.70;;;11.20;;
60851;SDS011;48553;50.766;2.900;2024-01-11T03:56:29;23.02;;;10.32;;
60851;SDS011;48553;50.766;2.900;2024-01-11T03:59:30;22.27;;;10.02;;
60851;SDS011;48553;50.766;2.900;2024-01-11T04:02:30;26.55;;;9.98;;
60851;SDS011;48553;50.766;2.900;2024-01-11T04:05:31;28.17;;;10.52;;
60851;SDS011;48553;50.766;2.900;2024-01-11T04:08:31;26.63;;;10.93;;
60851;SDS011;48553;50.766;2.900;2024-01-11T04:11:31;28.52;;;10.48;;
60851;SDS011;48553;50.766;2.900;2024-01-11T04:14:32;23.90;;;9.77;;
60851;SDS011;48553;50.766;2.900;2024-01-11T04:17:32;24.70;;;10.15;;
60851;SDS011;48553;50.766;2.900;2024-01-11T04:20:33;26.13;;;10.93;;
60851;SDS011;48553;50.766;2.900;2024-01-11T04:23:34;21.98;;;9.73;;
60851;SDS011;48553;50.766;2.900;2024-01-11T04:26:34;30.73;;;10.45;;
60851;SDS011;48553;50.766;2.900;2024-01-11T04:29:35;26.58;;;10.65;;
60851;SDS011;48553;50.766;2.900;2024-01-11T04:32:35;24.55;;;10.55;;
60851;SDS011;48553;50.766;2.900;2024-01-11T04:35:36;26.95;;;11.00;;
60851;SDS011;48553;50.766;2.900;2024-01-11T04:38:37;23.10;;;9.30;;
60851;SDS011;48553;50.766;2.900;2024-01-11T04:41:37;26.55;;;10.40;;
60851;SDS011;48553;50.766;2.900;2024-01-11T04:44:38;27.45;;;10.73;;
60851;SDS011;48553;50.766;2.900;2024-01-11T04:47:39;26.50;;;10.38;;
60851;SDS011;48553;50.766;2.900;2024-01-11T04:50:40;23.88;;;10.18;;
60851;SDS011;48553;50.766;2.900;2024-01-11T04:53:41;31.48;;;10.65;;
60851;SDS011;48553;50.766;2.900;2024-01-11T04:56:42;28.38;;;10.50;;
60851;SDS011;48553;50.766;2.900;2024-01-11T04:59:43;24.15;;;10.65;;
60851;SDS011;48553;50.766;2.900;2024-01-11T05:02:43;26.95;;;10.93;;
60851;SDS011;48553;50.766;2.900;2024-01-11T05:05:44;28.77;;;10.15;;
60851;SDS011;48553;50.766;2.900;2024-01-11T05:08:45;29.02;;;11.05;;
60851;SDS011;48553;50.766;2.900;2024-01-11T05:11:46;24.60;;;10.93;;
60851;SDS011;48553;50.766;2.900;2024-01-11T05:14:46;24.95;;;9.88;;
60851;SDS011;48553;50.766;2.900;2024-01-11T05:17:47;24.58;;;10.35;;
60851;SDS011;48553;50.766;2.900;2024-01-11T05:20:47;30.17;;;10.75;;
60851;SDS011;48553;50.766;2.900;2024-01-11T05:23:48;26.60;;;11.00;;
60851;SDS011;48553;50.766;2.900;2024-01-11T05:26:48;22.85;;;10.02;;
60851;SDS011;48553;50.766;2.900;2024-01-11T05:29:49;26.02;;;10.02;;
60851;SDS011;48553;50.766;2.900;2024-01-11T05:32:49;24.45;;;10.18;;
60851;SDS011;48553;50.766;2.900;2024-01-11T05:35:49;25.33;;;10.05;;
60851;SDS011;48553;50.766;2.900;2024-01-11T05:38:50;24.90;;;10.60;;
60851;SDS011;48553;50.766;2.900;2024-01-11T05:41:50;27.98;;;10.13;;
60851;SDS011;48553;50.766;2.900;2024-01-11T05:44:52;24.30;;;10.77;;
60851;SDS011;48553;50.766;2.900;2024-01-11T05:47:52;25.60;;;10.55;;
60851;SDS011;48553;50.766;2.900;2024-01-11T05:50:53;29.17;;;10.68;;
60851;SDS011;48553;50.766;2.900;2024-01-11T05:53:53;23.60;;;9.68;;
60851;SDS011;48553;50.766;2.900;2024-01-11T05:56:54;25.83;;;10.75;;
60851;SDS011;48553;50.766;2.900;2024-01-11T05:59:59;26.55;;;10.32;;
60851;SDS011;48553;50.766;2.900;2024-01-11T06:02:59;25.17;;;10.52;;
60851;SDS011;48553;50.766;2.900;2024-01-11T06:06:00;26.08;;;10.52;;
60851;SDS011;48553;50.766;2.900;2024-01-11T06:09:01;29.38;;;10.82;;
60851;SDS011;48553;50.766;2.900;2024-01-11T06:12:04;26.30;;;10.48;;
60851;SDS011;48553;50.766;2.900;2024-01-11T06:15:05;26.20;;;10.65;;
60851;SDS011;48553;50.766;2.900;2024-01-11T06:18:06;26.95;;;10.15;;
60851;SDS011;48553;50.766;2.900;2024-01-11T06:21:06;26.50;;;10.68;;
60851;SDS011;48553;50.766;2.900;2024-01-11T06:24:06;23.75;;;10.95;;
60851;SDS011;48553;50.766;2.900;2024-01-11T06:27:07;28.13;;;10.68;;
60851;SDS011;48553;50.766;2.900;2024-01-11T06:30:08;27.00;;;10.80;;
60851;SDS011;48553;50.766;2.900;2024-01-11T06:33:08;29.23;;;10.93;;
60851;SDS011;48553;50.766;2.900;2024-01-11T06:36:09;28.75;;;10.65;;
60851;SDS011;48553;50.766;2.900;2024-01-11T06:39:09;29.48;;;11.82;;
60851;SDS011;48553;50.766;2.900;2024-01-11T06:42:10;26.85;;;11.27;;
60851;SDS011;48553;50.766;2.900;2024-01-11T06:45:10;29.50;;;11.15;;
60851;SDS011;48553;50.766;2.900;2024-01-11T06:48:11;27.38;;;10.93;;
60851;SDS011;48553;50.766;2.900;2024-01-11T06:51:14;23.45;;;9.93;;
60851;SDS011;48553;50.766;2.900;2024-01-11T06:54:15;24.95;;;10.00;;
60851;SDS011;48553;50.766;2.900;2024-01-11T06:57:16;27.10;;;10.63;;
60851;SDS011;48553;50.766;2.900;2024-01-11T07:00:16;23.60;;;10.02;;
60851;SDS011;48553;50.766;2.900;2024-01-11T07:03:17;24.48;;;10.52;;
60851;SDS011;48553;50.766;2.900;2024-01-11T07:06:18;27.48;;;10.40;;
60851;SDS011;48553;50.766;2.900;2024-01-11T07:09:18;26.50;;;10.73;;
60851;SDS011;48553;50.766;2.900;2024-01-11T07:12:19;26.08;;;9.93;;
60851;SDS011;48553;50.766;2.900;2024-01-11T07:15:19;23.88;;;10.05;;
60851;SDS011;48553;50.766;2.900;2024-01-11T07:18:20;28.83;;;10.27;;
60851;SDS011;48553;50.766;2.900;2024-01-11T07:21:23;23.80;;;9.45;;
60851;SDS011;48553;50.766;2.900;2024-01-11T07:24:29;24.63;;;10.18;;
60851;SDS011;48553;50.766;2.900;2024-01-11T07:27:37;26.30;;;10.70;;
60851;SDS011;48553;50.766;2.900;2024-01-11T07:30:37;26.58;;;10.02;;
60851;SDS011;48553;50.766;2.900;2024-01-11T07:33:38;25.23;;;10.63;;
60851;SDS011;48553;50.766;2.900;2024-01-11T07:36:38;28.25;;;10.70;;
60851;SDS011;48553;50.766;2.900;2024-01-11T07:39:38;24.55;;;10.27;;
60851;SDS011;48553;50.766;2.900;2024-01-11T07:42:39;23.60;;;10.57;;
60851;SDS011;48553;50.766;2.900;2024-01-11T07:45:40;21.00;;;9.75;;
60851;SDS011;48553;50.766;2.900;2024-01-11T07:48:40;23.98;;;10.05;;
60851;SDS011;48553;50.766;2.900;2024-01-11T07:51:41;23.10;;;9.82;;
60851;SDS011;48553;50.766;2.900;2024-01-11T07:54:42;23.70;;;10.18;;
60851;SDS011;48553;50.766;2.900;2024-01-11T07:57:42;26.90;;;10.00;;
60851;SDS011;48553;50.766;2.900;2024-01-11T08:00:42;22.23;;;9.80;;
60851;SDS011;48553;50.766;2.900;2024-01-11T08:03:43;22.65;;;9.73;;
60851;SDS011;48553;50.766;2.900;2024-01-11T08:06:47;26.83;;;10.32;;
60851;SDS011;48553;50.766;2.900;2024-01-11T08:09:47;21.60;;;10.55;;
60851;SDS011;48553;50.766;2.900;2024-01-11T08:12:48;20.75;;;10.43;;
60851;SDS011;48553;50.766;2.900;2024-01-11T08:15:48;22.85;;;10.27;;
60851;SDS011;48553;50.766;2.900;2024-01-11T08:18:49;24.75;;;10.20;;
60851;SDS011;48553;50.766;2.900;2024-01-11T08:21:50;29.58;;;11.07;;
60851;SDS011;48553;50.766;2.900;2024-01-11T08:24:50;25.08;;;10.70;;
60851;SDS011;48553;50.766;2.900;2024-01-11T08:27:51;31.42;;;11.57;;
60851;SDS011;48553;50.766;2.900;2024-01-11T08:30:51;24.92;;;11.20;;
60851;SDS011;48553;50.766;2.900;2024-01-11T08:33:52;24.27;;;11.18;;
60851;SDS011;48553;50.766;2.900;2024-01-11T08:36:53;29.23;;;11.48;;
60851;SDS011;48553;50.766;2.900;2024-01-11T08:39:53;25.75;;;11.48;;
60851;SDS011;48553;50.766;2.900;2024-01-11T08:42:54;27.77;;;11.05;;
60851;SDS011;48553;50.766;2.900;2024-01-11T08:45:54;25.60;;;11.02;;
60851;SDS011;48553;50.766;2.900;2024-01-11T08:48:55;23.63;;;10.48;;
60851;SDS011;48553;50.766;2.900;2024-01-11T08:51:56;26.00;;;11.40;;
60851;SDS011;48553;50.766;2.900;2024-01-11T08:54:58;23.70;;;11.25;;
60851;SDS011;48553;50.766;2.900;2024-01-11T08:57:58;28.38;;;11.93;;
60851;SDS011;48553;50.766;2.900;2024-01-11T09:00:59;28.27;;;11.98;;
60851;SDS011;48553;50.766;2.900;2024-01-11T09:03:59;30.02;;;12.43;;
60851;SDS011;48553;50.766;2.900;2024-01-11T09:06:59;22.60;;;11.73;;
60851;SDS011;48553;50.766;2.900;2024-01-11T09:10:00;24.95;;;12.27;;
60851;SDS011;48553;50.766;2.900;2024-01-11T09:13:00;26.38;;;12.57;;
60851;SDS011;48553;50.766;2.900;2024-01-11T09:16:01;29.20;;;13.38;;
60851;SDS011;48553;50.766;2.900;2024-01-11T09:19:01;26.65;;;11.60;;
60851;SDS011;48553;50.766;2.900;2024-01-11T09:22:01;27.13;;;12.57;;
60851;SDS011;48553;50.766;2.900;2024-01-11T09:25:02;29.42;;;12.68;;
60851;SDS011;48553;50.766;2.900;2024-01-11T09:28:03;29.80;;;12.55;;
60851;SDS011;48553;50.766;2.900;2024-01-11T09:31:03;29.08;;;12.88;;
60851;SDS011;48553;50.766;2.900;2024-01-11T09:34:04;30.73;;;13.02;;
60851;SDS011;48553;50.766;2.900;2024-01-11T09:37:04;31.90;;;12.88;;
60851;SDS011;48553;50.766;2.900;2024-01-11T09:40:05;30.10;;;12.15;;
60851;SDS011;48553;50.766;2.900;2024-01-11T09:43:10;31.15;;;13.00;;
60851;SDS011;48553;50.766;2.900;2024-01-11T09:46:12;29.00;;;13.05;;
60851;SDS011;48553;50.766;2.900;2024-01-11T09:49:12;27.95;;;12.75;;
60851;SDS011;48553;50.766;2.900;2024-01-11T09:52:16;28.55;;;12.68;;
60851;SDS011;48553;50.766;2.900;2024-01-11T09:55:20;29.40;;;13.10;;
60851;SDS011;48553;50.766;2.900;2024-01-11T09:58:20;28.42;;;12.70;;
60851;SDS011;48553;50.766;2.900;2024-01-11T10:01:22;26.55;;;11.85;;
60851;SDS011;48553;50.766;2.900;2024-01-11T10:04:24;28.55;;;12.73;;
60851;SDS011;48553;50.766;2.900;2024-01-11T10:07:25;28.05;;;12.98;;
60851;SDS011;48553;50.766;2.900;2024-01-11T10:10:30;28.67;;;13.15;;
60851;SDS011;48553;50.766;2.900;2024-01-11T10:13:31;29.85;;;13.10;;
60851;SDS011;48553;50.766;2.900;2024-01-11T10:16:33;29.88;;;13.90;;
60851;SDS011;48553;50.766;2.900;2024-01-11T10:19:33;29.33;;;13.80;;
60851;SDS011;48553;50.766;2.900;2024-01-11T10:22:33;30.23;;;12.93;;
60851;SDS011;48553;50.766;2.900;2024-01-11T10:25:35;29.80;;;12.68;;
60851;SDS011;48553;50.766;2.900;2024-01-11T10:28:35;27.25;;;13.13;;
60851;SDS011;48553;50.766;2.900;2024-01-11T10:31:39;28.10;;;13.25;;
60851;SDS011;48553;50.766;2.900;2024-01-11T10:34:40;25.58;;;12.25;;
60851;SDS011;48553;50.766;2.900;2024-01-11T10:37:41;26.20;;;13.30;;
60851;SDS011;48553;50.766;2.900;2024-01-11T10:40:44;25.25;;;12.73;;
60851;SDS011;48553;50.766;2.900;2024-01-11T10:43:45;25.23;;;12.88;;
60851;SDS011;48553;50.766;2.900;2024-01-11T10:46:51;27.38;;;13.27;;
60851;SDS011;48553;50.766;2.900;2024-01-11T10:49:56;29.02;;;13.27;;
60851;SDS011;48553;50.766;2.900;2024-01-11T10:56:03;26.30;;;12.50;;
60851;SDS011;48553;50.766;2.900;2024-01-11T10:59:06;27.38;;;13.10;;
60851;SDS011;48553;50.766;2.900;2024-01-11T11:02:07;29.38;;;12.68;;
60851;SDS011;48553;50.766;2.900;2024-01-11T11:05:12;28.80;;;13.00;;
60851;SDS011;48553;50.766;2.900;2024-01-11T11:08:15;25.83;;;12.65;;
60851;SDS011;48553;50.766;2.900;2024-01-11T11:11:17;30.40;;;13.00;;
60851;SDS011;48553;50.766;2.900;2024-01-11T11:14:19;26.10;;;12.77;;
60851;SDS011;48553;50.766;2.900;2024-01-11T11:17:21;26.30;;;12.90;;
60851;SDS011;48553;50.766;2.900;2024-01-11T11:20:21;28.23;;;12.73;;
60851;SDS011;48553;50.766;2.900;2024-01-11T11:23:22;28.02;;;12.57;;
60851;SDS011;48553;50.766;2.900;2024-01-11T11:26:23;27.50;;;12.60;;
60851;SDS011;48553;50.766;2.900;2024-01-11T11:29:26;27.20;;;12.52;;
60851;SDS011;48553;50.766;2.900;2024-01-11T11:32:42;23.60;;;12.20;;
60851;SDS011;48553;50.766;2.900;2024-01-11T11:35:43;28.25;;;11.85;;
60851;SDS011;48553;50.766;2.900;2024-01-11T11:38:46;25.13;;;12.60;;
60851;SDS011;48553;50.766;2.900;2024-01-11T11:41:47;26.48;;;12.18;;
60851;SDS011;48553;50.766;2.900;2024-01-11T11:44:52;27.45;;;12.57;;
60851;SDS011;48553;50.766;2.900;2024-01-11T11:47:52;25.75;;;11.70;;
60851;SDS011;48553;50.766;2.900;2024-01-11T11:51:09;27.33;;;12.18;;
60851;SDS011;48553;50.766;2.900;2024-01-11T11:54:09;25.25;;;12.00;;
60851;SDS011;48553;50.766;2.900;2024-01-11T11:57:11;24.75;;;11.00;;
60851;SDS011;48553;50.766;2.900;2024-01-11T12:00:12;26.48;;;11.57;;
60851;SDS011;48553;50.766;2.900;2024-01-11T12:03:13;26.83;;;12.35;;
60851;SDS011;48553;50.766;2.900;2024-01-11T12:06:14;26.70;;;11.63;;
60851;SDS011;48553;50.766;2.900;2024-01-11T12:09:17;24.30;;;10.98;;
60851;SDS011;48553;50.766;2.900;2024-01-11T12:12:21;25.63;;;11.95;;
60851;SDS011;48553;50.766;2.900;2024-01-11T12:15:22;21.92;;;10.98;;
60851;SDS011;48553;50.766;2.900;2024-01-11T12:18:22;23.13;;;11.02;;
60851;SDS011;48553;50.766;2.900;2024-01-11T12:21:23;22.42;;;10.88;;
60851;SDS011;48553;50.766;2.900;2024-01-11T12:24:24;23.67;;;10.43;;
60851;SDS011;48553;50.766;2.900;2024-01-11T12:27:24;23.45;;;10.32;;
60851;SDS011;48553;50.766;2.900;2024-01-11T12:30:26;22.40;;;10.77;;
60851;SDS011;48553;50.766;2.900;2024-01-11T12:33:27;21.23;;;9.98;;
60851;SDS011;48553;50.766;2.900;2024-01-11T12:36:28;21.15;;;10.10;;
60851;SDS011;48553;50.766;2.900;2024-01-11T12:39:29;22.98;;;10.60;;
60851;SDS011;48553;50.766;2.900;2024-01-11T12:42:29;25.20;;;10.75;;
60851;SDS011;48553;50.766;2.900;2024-01-11T12:45:31;19.40;;;9.43;;
60851;SDS011;48553;50.766;2.900;2024-01-11T12:48:32;22.95;;;9.85;;
60851;SDS011;48553;50.766;2.900;2024-01-11T12:51:33;22.58;;;9.90;;
60851;SDS011;48553;50.766;2.900;2024-01-11T12:54:36;20.90;;;10.27;;
60851;SDS011;48553;50.766;2.900;2024-01-11T12:57:36;19.23;;;9.27;;
60851;SDS011;48553;50.766;2.900;2024-01-11T13:00:37;21.23;;;9.38;;
60851;SDS011;48553;50.766;2.900;2024-01-11T13:03:39;22.42;;;9.38;;
60851;SDS011;48553;50.766;2.900;2024-01-11T13:06:43;17.83;;;9.10;;
60851;SDS011;48553;50.766;2.900;2024-01-11T13:09:44;20.77;;;9.20;;
60851;SDS011;48553;50.766;2.900;2024-01-11T13:12:45;21.00;;;9.55;;
60851;SDS011;48553;50.766;2.900;2024-01-11T13:15:45;21.55;;;9.60;;
60851;SDS011;48553;50.766;2.900;2024-01-11T13:18:46;19.85;;;9.20;;
60851;SDS011;48553;50.766;2.900;2024-01-11T13:21:47;18.80;;;9.23;;
60851;SDS011;48553;50.766;2.900;2024-01-11T13:24:48;22.70;;;9.70;;
60851;SDS011;48553;50.766;2.900;2024-01-11T13:27:48;21.52;;;9.45;;
60851;SDS011;48553;50.766;2.900;2024-01-11T13:30:49;20.60;;;9.30;;
60851;SDS011;48553;50.766;2.900;2024-01-11T13:33:49;23.48;;;9.88;;
60851;SDS011;48553;50.766;2.900;2024-01-11T13:36:49;21.50;;;9.82;;
60851;SDS011;48553;50.766;2.900;2024-01-11T13:39:50;21.08;;;9.88;;
60851;SDS011;48553;50.766;2.900;2024-01-11T13:42:50;23.58;;;9.63;;
60851;SDS011;48553;50.766;2.900;2024-01-11T13:45:51;22.95;;;9.63;;
60851;SDS011;48553;50.766;2.900;2024-01-11T13:48:51;21.45;;;9.40;;
60851;SDS011;48553;50.766;2.900;2024-01-11T13:51:53;21.55;;;9.73;;
60851;SDS011;48553;50.766;2.900;2024-01-11T13:54:54;22.05;;;9.80;;
60851;SDS011;48553;50.766;2.900;2024-01-11T13:57:54;21.27;;;9.68;;
60851;SDS011;48553;50.766;2.900;2024-01-11T14:00:55;21.70;;;9.95;;
60851;SDS011;48553;50.766;2.900;2024-01-11T14:03:55;25.95;;;9.82;;
60851;SDS011;48553;50.766;2.900;2024-01-11T14:06:56;23.98;;;9.63;;
60851;SDS011;48553;50.766;2.900;2024-01-11T14:09:57;21.10;;;9.60;;
60851;SDS011;48553;50.766;2.900;2024-01-11T14:12:59;20.65;;;8.95;;
60851;SDS011;48553;50.766;2.900;2024-01-11T14:16:03;20.90;;;8.68;;
60851;SDS011;48553;50.766;2.900;2024-01-11T14:19:04;18.10;;;8.15;;
60851;SDS011;48553;50.766;2.900;2024-01-11T14:22:04;18.30;;;7.75;;
60851;SDS011;48553;50.766;2.900;2024-01-11T14:25:05;21.83;;;8.05;;
60851;SDS011;48553;50.766;2.900;2024-01-11T14:28:05;18.92;;;7.70;;
60851;SDS011;48553;50.766;2.900;2024-01-11T14:31:06;15.60;;;7.45;;
60851;SDS011;48553;50.766;2.900;2024-01-11T14:34:06;16.15;;;7.07;;
60851;SDS011;48553;50.766;2.900;2024-01-11T14:37:07;16.80;;;7.40;;
60851;SDS011;48553;50.766;2.900;2024-01-11T14:40:08;17.27;;;6.93;;
60851;SDS011;48553;50.766;2.900;2024-01-11T14:43:11;15.68;;;6.68;;
60851;SDS011;48553;50.766;2.900;2024-01-11T14:46:12;14.02;;;6.35;;
60851;SDS011;48553;50.766;2.900;2024-01-11T14:49:12;14.25;;;6.53;;
60851;SDS011;48553;50.766;2.900;2024-01-11T14:52:13;14.90;;;6.30;;
60851;SDS011;48553;50.766;2.900;2024-01-11T14:55:13;17.08;;;6.63;;
60851;SDS011;48553;50.766;2.900;2024-01-11T14:58:14;15.98;;;6.43;;
60851;SDS011;48553;50.766;2.900;2024-01-11T15:01:16;13.77;;;6.20;;
60851;SDS011;48553;50.766;2.900;2024-01-11T15:04:17;15.82;;;6.30;;
60851;SDS011;48553;50.766;2.900;2024-01-11T15:07:18;11.63;;;5.55;;
60851;SDS011;48553;50.766;2.900;2024-01-11T15:10:18;14.23;;;6.40;;
60851;SDS011;48553;50.766;2.900;2024-01-11T15:13:19;13.52;;;6.25;;
60851;SDS011;48553;50.766;2.900;2024-01-11T15:16:19;14.20;;;6.82;;
60851;SDS011;48553;50.766;2.900;2024-01-11T15:19:20;17.48;;;7.13;;
60851;SDS011;48553;50.766;2.900;2024-01-11T15:22:21;16.52;;;6.85;;
60851;SDS011;48553;50.766;2.900;2024-01-11T15:25:21;14.38;;;6.55;;
60851;SDS011;48553;50.766;2.900;2024-01-11T15:28:23;14.55;;;6.55;;
60851;SDS011;48553;50.766;2.900;2024-01-11T15:31:24;15.07;;;7.55;;
60851;SDS011;48553;50.766;2.900;2024-01-11T15:34:25;18.02;;;7.32;;
60851;SDS011;48553;50.766;2.900;2024-01-11T15:37:26;16.15;;;7.47;;
60851;SDS011;48553;50.766;2.900;2024-01-11T15:40:28;15.88;;;7.30;;
60851;SDS011;48553;50.766;2.900;2024-01-11T15:43:29;16.75;;;7.38;;
60851;SDS011;48553;50.766;2.900;2024-01-11T15:46:29;17.98;;;7.95;;
60851;SDS011;48553;50.766;2.900;2024-01-11T15:49:30;18.02;;;7.88;;
60851;SDS011;48553;50.766;2.900;2024-01-11T15:52:30;18.08;;;7.70;;
60851;SDS011;48553;50.766;2.900;2024-01-11T15:55:31;18.52;;;8.55;;
60851;SDS011;48553;50.766;2.900;2024-01-11T15:58:31;17.95;;;8.65;;
60851;SDS011;48553;50.766;2.900;2024-01-11T16:01:32;20.42;;;8.52;;
60851;SDS011;48553;50.766;2.900;2024-01-11T16:04:34;19.58;;;8.52;;
60851;SDS011;48553;50.766;2.900;2024-01-11T16:07:35;17.20;;;8.30;;
60851;SDS011;48553;50.766;2.900;2024-01-11T16:10:36;20.30;;;8.50;;
60851;SDS011;48553;50.766;2.900;2024-01-11T16:13:36;19.33;;;8.52;;
60851;SDS011;48553;50.766;2.900;2024-01-11T16:16:37;19.45;;;8.60;;
60851;SDS011;48553;50.766;2.900;2024-01-11T16:19:38;18.83;;;8.82;;
60851;SDS011;48553;50.766;2.900;2024-01-11T16:22:39;19.00;;;8.55;;
60851;SDS011;48553;50.766;2.900;2024-01-11T16:25:39;20.10;;;8.70;;
60851;SDS011;48553;50.766;2.900;2024-01-11T16:28:40;20.67;;;8.48;;
60851;SDS011;48553;50.766;2.900;2024-01-11T16:31:40;19.17;;;8.98;;
60851;SDS011;48553;50.766;2.900;2024-01-11T16:34:41;20.27;;;9.65;;
60851;SDS011;48553;50.766;2.900;2024-01-11T16:37:41;16.60;;;8.82;;
60851;SDS011;48553;50.766;2.900;2024-01-11T16:40:41;23.95;;;9.65;;
60851;SDS011;48553;50.766;2.900;2024-01-11T16:43:43;21.42;;;9.32;;
60851;SDS011;48553;50.766;2.900;2024-01-11T16:46:44;19.25;;;9.00;;
60851;SDS011;48553;50.766;2.900;2024-01-11T16:49:44;21.63;;;9.75;;
60851;SDS011;48553;50.766;2.900;2024-01-11T16:52:45;22.58;;;9.45;;
60851;SDS011;48553;50.766;2.900;2024-01-11T16:55:45;19.75;;;8.63;;
60851;SDS011;48553;50.766;2.900;2024-01-11T16:58:46;22.23;;;9.13;;
60851;SDS011;48553;50.766;2.900;2024-01-11T17:01:47;21.40;;;9.85;;
60851;SDS011;48553;50.766;2.900;2024-01-11T17:04:47;23.30;;;9.63;;
60851;SDS011;48553;50.766;2.900;2024-01-11T17:07:48;20.83;;;9.27;;
60851;SDS011;48553;50.766;2.900;2024-01-11T17:10:48;17.73;;;8.57;;
60851;SDS011;48553;50.766;2.900;2024-01-11T17:13:49;22.02;;;9.55;;
60851;SDS011;48553;50.766;2.900;2024-01-11T17:16:50;22.55;;;9.52;;
60851;SDS011;48553;50.766;2.900;2024-01-11T17:19:51;21.02;;;8.73;;
60851;SDS011;48553;50.766;2.900;2024-01-11T17:22:52;20.08;;;9.30;;
60851;SDS011;48553;50.766;2.900;2024-01-11T17:25:52;21.02;;;9.18;;
60851;SDS011;48553;50.766;2.900;2024-01-11T17:28:53;20.13;;;8.93;;
60851;SDS011;48553;50.766;2.900;2024-01-11T17:31:53;19.35;;;8.88;;
60851;SDS011;48553;50.766;2.900;2024-01-11T17:34:54;20.92;;;9.30;;
60851;SDS011;48553;50.766;2.900;2024-01-11T17:37:55;20.50;;;9.38;;
60851;SDS011;48553;50.766;2.900;2024-01-11T17:40:55;22.17;;;9.27;;
60851;SDS011;48553;50.766;2.900;2024-01-11T17:43:56;20.48;;;9.00;;
60851;SDS011;48553;50.766;2.900;2024-01-11T17:46:56;20.38;;;8.75;;